createdAt,value
2018-06-10T00:01:39.611Z,17.62
2018-06-10T00:04:08.116Z,18.92
2018-06-10T00:06:36.700Z,19.62
2018-06-10T00:09:07.476Z,19.62
2018-06-10T00:11:40.655Z,17.50
2018-06-10T00:14:10.696Z,15.68
2018-06-10T00:16:39.534Z,14.53
2018-06-10T00:19:08.177Z,13.70
2018-06-10T00:21:37.143Z,13.32
2018-06-10T00:24:06.397Z,13.32
2018-06-10T00:26:36.378Z,13.15
2018-06-10T00:29:10.214Z,12.18
2018-06-10T00:31:39.213Z,13.58
2018-06-10T00:34:07.680Z,12.82
2018-06-10T00:36:36.161Z,13.20
2018-06-10T00:39:07.862Z,13.58
2018-06-10T00:41:37.121Z,13.68
2018-06-10T00:44:05.735Z,12.70
2018-06-10T00:46:34.232Z,12.37
2018-06-10T00:49:02.727Z,13.00
2018-06-10T00:51:31.275Z,11.25
2018-06-10T00:53:59.774Z,10.88
2018-06-10T00:56:39.471Z,10.58
2018-06-10T00:59:08.046Z,12.43
2018-06-10T01:01:36.627Z,12.80
2018-06-10T01:04:05.215Z,12.33
2018-06-10T01:06:33.794Z,12.23
2018-06-10T01:09:02.451Z,14.35
2018-06-10T01:11:30.939Z,16.60
2018-06-10T01:13:59.563Z,16.20
2018-06-10T01:16:28.107Z,13.58
2018-06-10T01:18:56.758Z,14.35
2018-06-10T01:21:25.650Z,15.32
2018-06-10T01:23:54.198Z,15.43
2018-06-10T01:26:27.971Z,13.48
2018-06-10T01:28:56.524Z,14.85
2018-06-10T01:31:25.140Z,14.70
2018-06-10T01:33:53.984Z,13.53
2018-06-10T01:36:22.606Z,13.00
2018-06-10T01:38:51.383Z,11.38
2018-06-10T01:41:20.160Z,11.30
2018-06-10T01:43:49.248Z,11.25
2018-06-10T01:46:18.151Z,11.90
2018-06-10T01:48:48.233Z,12.45
2018-06-10T01:51:17.050Z,11.93
2018-06-10T01:53:45.744Z,12.50
2018-06-10T01:56:14.619Z,12.28
2018-06-10T01:58:43.333Z,13.28
2018-06-10T02:01:11.846Z,12.55
2018-06-10T02:03:40.382Z,12.53
2018-06-10T02:06:08.879Z,10.93
2018-06-10T02:08:37.423Z,11.43
2018-06-10T02:11:05.866Z,11.78
2018-06-10T02:13:34.304Z,11.28
2018-06-10T02:16:02.783Z,10.85
2018-06-10T02:18:31.270Z,10.88
2018-06-10T02:20:59.794Z,10.85
2018-06-10T02:23:28.332Z,11.73
2018-06-10T02:25:56.889Z,10.38
2018-06-10T02:28:25.539Z,10.80
2018-06-10T02:30:54.112Z,10.40
2018-06-10T02:33:22.753Z,9.85
2018-06-10T02:35:51.829Z,10.82
2018-06-10T02:38:20.704Z,10.25
2018-06-10T02:40:49.522Z,10.65
2018-06-10T02:43:18.393Z,10.65
2018-06-10T02:45:47.380Z,10.70
2018-06-10T02:48:16.304Z,10.23
2018-06-10T02:50:44.906Z,11.75
2018-06-10T02:53:13.439Z,11.28
2018-06-10T02:55:41.873Z,11.65
2018-06-10T02:58:10.651Z,11.75
2018-06-10T03:00:39.232Z,11.70
2018-06-10T03:03:07.745Z,12.30
2018-06-10T03:05:36.232Z,12.37
2018-06-10T03:08:04.708Z,11.78
2018-06-10T03:10:38.716Z,13.00
2018-06-10T03:13:07.193Z,12.68
2018-06-10T03:15:35.655Z,13.55
2018-06-10T03:18:04.098Z,12.55
2018-06-10T03:20:32.744Z,12.78
2018-06-10T03:23:01.195Z,13.30
2018-06-10T03:25:29.684Z,13.03
2018-06-10T03:27:58.178Z,11.43
2018-06-10T03:30:26.638Z,12.20
2018-06-10T03:32:55.121Z,12.07
2018-06-10T03:35:23.882Z,12.37
2018-06-10T03:37:52.490Z,12.33
2018-06-10T03:40:21.403Z,11.90
2018-06-10T03:42:50.112Z,11.68
2018-06-10T03:45:19.059Z,11.28
2018-06-10T03:47:47.722Z,12.18
2018-06-10T03:50:16.608Z,12.73
2018-06-10T03:52:45.346Z,13.00
2018-06-10T03:55:13.864Z,12.63
2018-06-10T03:57:42.364Z,12.35
2018-06-10T04:00:10.608Z,13.28
2018-06-10T04:02:39.252Z,12.70
2018-06-10T04:05:08.055Z,11.57
2018-06-10T04:07:38.579Z,12.18
2018-06-10T04:10:07.063Z,12.23
2018-06-10T04:12:35.583Z,12.73
2018-06-10T04:15:04.144Z,11.68
2018-06-10T04:17:32.629Z,11.73
2018-06-10T04:20:01.107Z,12.25
2018-06-10T04:22:29.495Z,13.20
2018-06-10T04:24:58.058Z,12.33
2018-06-10T04:27:26.738Z,12.30
2018-06-10T04:29:55.317Z,12.65
2018-06-10T04:32:24.352Z,12.50
2018-06-10T04:34:52.988Z,11.83
2018-06-10T04:37:27.833Z,12.63
2018-06-10T04:39:56.515Z,13.68
2018-06-10T04:42:25.350Z,12.68
2018-06-10T04:44:53.992Z,11.95
2018-06-10T04:47:23.261Z,11.25
2018-06-10T04:49:52.059Z,11.95
2018-06-10T04:52:21.058Z,11.33
2018-06-10T04:54:50.229Z,11.75
2018-06-10T04:57:19.154Z,11.30
2018-06-10T04:59:47.795Z,11.08
2018-06-10T05:02:16.787Z,11.12
2018-06-10T05:04:45.236Z,11.75
2018-06-10T05:07:13.669Z,11.63
2018-06-10T05:09:42.204Z,12.45
2018-06-10T05:12:10.649Z,11.68
2018-06-10T05:14:39.430Z,11.40
2018-06-10T05:17:08.854Z,11.38
2018-06-10T05:19:37.382Z,11.10
2018-06-10T05:22:06.644Z,12.03
2018-06-10T05:24:36.232Z,10.48
2018-06-10T05:27:04.978Z,11.78
2018-06-10T05:29:33.671Z,12.60
2018-06-10T05:32:02.274Z,11.75
2018-06-10T05:34:30.818Z,10.75
2018-06-10T05:36:59.338Z,12.47
2018-06-10T05:39:27.956Z,11.28
2018-06-10T05:41:56.401Z,11.85
2018-06-10T05:44:25.071Z,12.18
2018-06-10T05:46:53.651Z,11.63
2018-06-10T05:49:22.501Z,11.30
2018-06-10T05:51:51.248Z,10.95
2018-06-10T05:54:20.324Z,10.63
2018-06-10T05:56:51.059Z,12.03
2018-06-10T05:59:19.679Z,11.48
2018-06-10T06:01:48.733Z,12.73
2018-06-10T06:04:17.827Z,11.55
2018-06-10T06:06:47.112Z,17.10
2018-06-10T06:09:16.906Z,16.87
2018-06-10T06:11:46.365Z,14.85
2018-06-10T06:14:15.118Z,12.85
2018-06-10T06:16:43.912Z,17.40
2018-06-10T06:19:14.065Z,14.90
2018-06-10T06:21:52.244Z,18.30
2018-06-10T06:24:21.071Z,21.35
2018-06-10T06:26:50.059Z,22.65
2018-06-10T06:29:31.215Z,23.42
2018-06-10T06:32:05.682Z,21.45
2018-06-10T06:34:54.625Z,18.80
2018-06-10T06:37:23.977Z,23.92
2018-06-10T06:39:56.733Z,19.50
2018-06-10T06:42:30.973Z,15.53
2018-06-10T06:45:01.908Z,14.28
2018-06-10T06:47:32.048Z,15.05
2018-06-10T06:50:03.512Z,16.05
2018-06-10T06:52:35.973Z,14.65
2018-06-10T06:55:10.563Z,16.15
2018-06-10T06:57:41.273Z,14.13
2018-06-10T07:00:10.511Z,15.32
2018-06-10T07:02:39.408Z,13.60
2018-06-10T07:05:08.495Z,14.83
2018-06-10T07:07:37.165Z,17.05
2018-06-10T07:10:05.694Z,15.28
2018-06-10T07:12:34.203Z,15.03
2018-06-10T07:15:02.959Z,13.15
2018-06-10T07:17:33.372Z,11.73
2018-06-10T07:20:05.320Z,13.20
2018-06-10T07:22:34.530Z,12.13
2018-06-10T07:25:04.342Z,12.23
2018-06-10T07:27:35.579Z,16.70
2018-06-10T07:30:06.777Z,21.12
2018-06-10T07:32:59.088Z,17.30
2018-06-10T07:35:31.678Z,14.63
2018-06-10T07:38:01.584Z,20.27
2018-06-10T07:40:30.776Z,12.78
2018-06-10T07:43:06.026Z,16.85
2018-06-10T07:45:36.981Z,17.00
2018-06-10T07:48:08.615Z,22.85
2018-06-10T07:50:37.792Z,21.62
2018-06-10T07:53:07.203Z,18.17
2018-06-10T07:55:39.799Z,23.07
2018-06-10T07:58:08.984Z,21.17
2018-06-10T08:00:37.444Z,20.60
2018-06-10T08:03:06.073Z,20.02
2018-06-10T08:05:37.698Z,20.70
2018-06-10T08:08:06.345Z,24.75
2018-06-10T08:10:37.722Z,20.30
2018-06-10T08:13:13.272Z,23.18
2018-06-10T08:15:43.510Z,23.40
2018-06-10T08:18:13.043Z,17.50
2018-06-10T08:20:41.561Z,14.60
2018-06-10T08:23:10.416Z,12.50
2018-06-10T08:25:39.053Z,18.55
2018-06-10T08:28:08.031Z,25.72
2018-06-10T08:30:36.642Z,18.95
2018-06-10T08:33:05.484Z,15.88
2018-06-10T08:35:34.155Z,15.28
2018-06-10T08:38:02.999Z,14.60
2018-06-10T08:40:32.723Z,18.85
2018-06-10T08:43:01.457Z,19.90
2018-06-10T08:45:30.378Z,23.45
2018-06-10T08:47:59.242Z,19.85
2018-06-10T08:50:27.994Z,16.05
2018-06-10T08:52:58.402Z,15.32
2018-06-10T08:55:30.290Z,15.90
2018-06-10T08:57:59.220Z,24.40
2018-06-10T09:00:27.754Z,19.57
2018-06-10T09:02:59.110Z,16.55
2018-06-10T09:05:27.646Z,15.20
2018-06-10T09:07:57.157Z,16.42
2018-06-10T09:10:26.526Z,16.52
2018-06-10T09:12:55.679Z,19.07
2018-06-10T09:15:25.091Z,23.70
2018-06-10T09:17:54.233Z,22.40
2018-06-10T09:20:23.800Z,16.67
2018-06-10T09:22:52.800Z,21.30
2018-06-10T09:25:21.947Z,22.50
2018-06-10T09:27:51.243Z,20.90
2018-06-10T09:30:20.947Z,21.20
2018-06-10T09:32:49.796Z,22.98
2018-06-10T09:35:18.590Z,23.18
2018-06-10T09:37:47.670Z,23.47
2018-06-10T09:40:17.023Z,22.48
2018-06-10T09:42:49.298Z,23.30
2018-06-10T09:45:18.418Z,19.48
2018-06-10T09:47:47.175Z,23.85
2018-06-10T09:50:17.042Z,18.62
2018-06-10T09:52:46.301Z,15.50
2018-06-10T09:55:15.874Z,15.15
2018-06-10T09:57:45.242Z,18.32
2018-06-10T10:00:21.308Z,20.00
2018-06-10T10:02:51.607Z,20.65
2018-06-10T10:05:26.964Z,20.48
2018-06-10T10:07:57.917Z,19.60
2018-06-10T10:10:26.939Z,17.10
2018-06-10T10:12:55.863Z,22.50
2018-06-10T10:15:24.848Z,20.30
2018-06-10T10:17:53.631Z,17.82
2018-06-10T10:20:26.144Z,15.95
2018-06-10T10:22:54.830Z,20.12
2018-06-10T10:25:24.115Z,19.92
2018-06-10T10:27:53.089Z,18.20
2018-06-10T10:30:22.215Z,16.70
2018-06-10T10:32:51.837Z,14.80
2018-06-10T10:35:21.727Z,19.92
2018-06-10T10:37:50.744Z,15.48
2018-06-10T10:40:20.636Z,13.40
2018-06-10T10:42:50.968Z,13.45
2018-06-10T10:45:20.093Z,14.38
2018-06-10T10:47:49.894Z,15.85
2018-06-10T10:50:19.103Z,12.25
2018-06-10T10:52:48.328Z,10.08
2018-06-10T10:55:17.400Z,16.45
2018-06-10T10:57:47.370Z,10.90
2018-06-10T11:00:16.087Z,12.00
2018-06-10T11:02:44.961Z,13.08
2018-06-10T11:05:13.535Z,12.95
2018-06-10T11:07:42.239Z,11.28
2018-06-10T11:10:10.884Z,10.00
2018-06-10T11:12:39.302Z,13.28
2018-06-10T11:15:07.779Z,13.68
2018-06-10T11:17:36.343Z,11.03
2018-06-10T11:20:04.919Z,13.55
2018-06-10T11:22:33.426Z,11.80
2018-06-10T11:25:01.976Z,9.53
2018-06-10T11:27:30.521Z,10.43
2018-06-10T11:29:59.155Z,8.80
2018-06-10T11:32:27.988Z,10.55
2018-06-10T11:34:57.491Z,8.78
2018-06-10T11:37:27.621Z,9.38
2018-06-10T11:39:58.181Z,10.35
2018-06-10T11:42:27.179Z,10.55
2018-06-10T11:44:56.753Z,15.53
2018-06-10T11:47:25.637Z,13.40
2018-06-10T11:49:57.903Z,11.73
2018-06-10T11:52:26.719Z,10.20
2018-06-10T11:54:55.611Z,12.25
2018-06-10T11:57:27.736Z,11.45
2018-06-10T11:59:58.103Z,10.88
2018-06-10T12:02:26.530Z,9.95
2018-06-10T12:04:55.215Z,11.80
2018-06-10T12:07:24.563Z,12.55
2018-06-10T12:09:53.482Z,11.70
2018-06-10T12:12:23.176Z,11.70
2018-06-10T12:14:52.057Z,11.15
2018-06-10T12:17:21.490Z,11.40
2018-06-10T12:19:51.035Z,8.95
2018-06-10T12:22:25.539Z,8.88
2018-06-10T12:24:55.803Z,8.00
2018-06-10T12:27:25.325Z,8.50
2018-06-10T12:29:54.008Z,7.92
2018-06-10T12:32:23.533Z,7.35
2018-06-10T12:34:52.526Z,6.60
2018-06-10T12:37:24.773Z,6.03
2018-06-10T12:40:04.429Z,5.87
2018-06-10T12:42:33.165Z,5.87
2018-06-10T12:45:04.537Z,5.58
2018-06-10T12:47:33.456Z,6.03
2018-06-10T12:50:02.387Z,6.75
2018-06-10T12:52:30.939Z,6.10
2018-06-10T12:55:00.177Z,5.92
2018-06-10T12:57:29.003Z,6.28
2018-06-10T12:59:57.524Z,6.95
2018-06-10T13:02:28.332Z,5.67
2018-06-10T13:04:57.047Z,6.30
2018-06-10T13:07:26.048Z,5.70
2018-06-10T13:09:54.922Z,5.97
2018-06-10T13:12:24.272Z,6.20
2018-06-10T13:14:53.075Z,5.55
2018-06-10T13:17:22.295Z,5.22
2018-06-10T13:19:50.867Z,5.30
2018-06-10T13:22:19.588Z,5.28
2018-06-10T13:24:48.230Z,5.83
2018-06-10T13:27:19.173Z,6.72
2018-06-10T13:29:48.918Z,6.80
2018-06-10T13:32:23.249Z,7.20
2018-06-10T13:34:52.028Z,6.87
2018-06-10T13:37:20.368Z,6.83
2018-06-10T13:39:49.233Z,6.58
2018-06-10T13:42:18.419Z,7.45
2018-06-10T13:44:47.084Z,7.05
2018-06-10T13:47:16.464Z,7.15
2018-06-10T13:49:45.621Z,6.60
2018-06-10T13:52:17.061Z,7.17
2018-06-10T13:54:47.965Z,10.55
2018-06-10T13:57:18.911Z,10.58
2018-06-10T13:59:50.116Z,10.65
2018-06-10T14:02:27.272Z,11.20
2018-06-10T14:04:56.305Z,10.03
2018-06-10T14:07:24.968Z,10.60
2018-06-10T14:09:53.602Z,10.80
2018-06-10T14:12:22.990Z,10.13
2018-06-10T14:14:51.974Z,9.93
2018-06-10T14:17:21.423Z,8.55
2018-06-10T14:19:53.059Z,7.80
2018-06-10T14:22:23.647Z,7.87
2018-06-10T14:24:52.634Z,7.33
2018-06-10T14:27:21.810Z,7.17
2018-06-10T14:29:50.381Z,8.60
2018-06-10T14:32:21.669Z,8.15
2018-06-10T14:34:52.299Z,8.68
2018-06-10T14:37:22.703Z,7.50
2018-06-10T14:39:51.815Z,5.95
2018-06-10T14:42:20.850Z,7.20
2018-06-10T14:44:50.340Z,7.12
2018-06-10T14:47:28.315Z,6.75
2018-06-10T14:51:28.150Z,6.45
2018-06-10T14:53:58.995Z,6.40
2018-06-10T14:56:27.778Z,5.87
2018-06-10T14:58:56.367Z,6.87
2018-06-10T15:01:25.193Z,5.35
2018-06-10T15:03:53.992Z,5.42
2018-06-10T15:06:23.239Z,4.70
2018-06-10T15:08:58.715Z,4.83
2018-06-10T15:11:29.709Z,5.05
2018-06-10T15:13:59.249Z,5.83
2018-06-10T15:16:29.233Z,6.58
2018-06-10T15:18:57.892Z,6.22
2018-06-10T15:21:26.675Z,6.10
2018-06-10T15:23:55.775Z,5.37
2018-06-10T15:26:25.341Z,5.15
2018-06-10T15:28:54.143Z,4.92
2018-06-10T15:31:22.738Z,4.70
2018-06-10T15:33:51.412Z,4.58
2018-06-10T15:36:19.738Z,4.80
2018-06-10T15:38:48.434Z,4.58
2018-06-10T15:41:17.396Z,4.92
2018-06-10T15:43:47.433Z,4.50
2018-06-10T15:46:16.093Z,4.55
2018-06-10T15:48:50.265Z,4.30
2018-06-10T15:51:19.357Z,4.53
2018-06-10T15:53:48.548Z,5.30
2018-06-10T15:56:18.389Z,5.50
2018-06-10T15:58:47.458Z,5.78
2018-06-10T16:01:17.268Z,6.03
2018-06-10T16:03:48.456Z,7.55
2018-06-10T16:06:18.334Z,6.45
2018-06-10T16:08:50.727Z,6.20
2018-06-10T16:11:20.329Z,6.40
2018-06-10T16:13:53.326Z,7.00
2018-06-10T16:16:23.286Z,5.90
2018-06-10T16:18:56.152Z,6.47
2018-06-10T16:21:25.196Z,7.20
2018-06-10T16:23:54.182Z,7.10
2018-06-10T16:26:24.815Z,7.40
2018-06-10T16:28:53.298Z,7.35
2018-06-10T16:31:24.219Z,6.30
2018-06-10T16:33:53.588Z,7.22
2018-06-10T16:36:21.795Z,8.88
2018-06-10T16:38:58.192Z,12.75
2018-06-10T16:41:27.795Z,14.87
2018-06-10T16:43:56.359Z,25.80
2018-06-10T16:46:26.213Z,9.40
2018-06-10T16:48:54.898Z,7.28
2018-06-10T16:51:23.257Z,7.45
2018-06-10T16:53:52.267Z,8.00
2018-06-10T16:56:20.663Z,10.70
2018-06-10T16:58:49.089Z,14.25
2018-06-10T17:01:17.505Z,12.18
2018-06-10T17:03:45.941Z,15.32
2018-06-10T17:06:14.328Z,10.43
2018-06-10T17:08:43.696Z,11.38
2018-06-10T17:11:12.050Z,9.98
2018-06-10T17:13:40.796Z,10.00
2018-06-10T17:16:09.250Z,7.72
2018-06-10T17:18:37.639Z,8.10
2018-06-10T17:21:06.145Z,8.43
2018-06-10T17:23:34.547Z,12.98
2018-06-10T17:26:03.354Z,12.63
2018-06-10T17:28:31.858Z,9.78
2018-06-10T17:31:00.345Z,10.78
2018-06-10T17:33:28.728Z,18.82
2018-06-10T17:35:57.344Z,27.73
2018-06-10T17:38:25.693Z,34.60
2018-06-10T17:40:54.101Z,29.23
2018-06-10T17:43:22.458Z,25.12
2018-06-10T17:45:50.998Z,19.07
2018-06-10T17:48:19.567Z,12.80
2018-06-10T17:50:47.992Z,10.05
2018-06-10T17:53:16.450Z,9.88
2018-06-10T17:55:44.869Z,9.83
2018-06-10T17:58:13.245Z,9.60
2018-06-10T18:00:41.625Z,8.95
2018-06-10T18:03:09.972Z,9.73
2018-06-10T18:05:38.402Z,9.88
2018-06-10T18:08:06.782Z,10.23
2018-06-10T18:10:35.146Z,11.80
2018-06-10T18:13:03.629Z,11.97
2018-06-10T18:15:32.002Z,11.43
2018-06-10T18:18:00.335Z,11.75
2018-06-10T18:20:28.742Z,11.60
2018-06-10T18:22:57.105Z,11.50
2018-06-10T18:25:25.523Z,13.80
2018-06-10T18:27:53.997Z,10.88
2018-06-10T18:30:22.415Z,10.25
2018-06-10T18:32:50.809Z,9.93
2018-06-10T18:35:19.212Z,12.20
2018-06-10T18:37:47.659Z,10.93
2018-06-10T18:40:16.104Z,10.00
2018-06-10T18:42:44.427Z,8.98
2018-06-10T18:45:14.063Z,8.85
2018-06-10T18:47:42.130Z,8.45
2018-06-10T18:50:10.482Z,8.85
2018-06-10T18:52:38.883Z,10.60
2018-06-10T18:55:07.259Z,12.50
2018-06-10T18:57:35.720Z,13.60
2018-06-10T19:00:04.628Z,15.60
2018-06-10T19:02:32.980Z,16.00
2018-06-10T19:05:01.335Z,14.68
2018-06-10T19:07:29.815Z,13.13
2018-06-10T19:09:58.205Z,12.80
2018-06-10T19:12:26.591Z,11.40
2018-06-10T19:14:54.941Z,10.08
2018-06-10T19:17:23.322Z,10.15
2018-06-10T19:19:51.744Z,9.60
2018-06-10T19:22:19.854Z,10.05
2018-06-10T19:24:48.182Z,10.30
2018-06-10T19:27:17.081Z,10.20
2018-06-10T19:29:45.500Z,10.48
2018-06-10T19:32:14.058Z,9.30
2018-06-10T19:34:43.095Z,9.95
2018-06-10T19:37:13.262Z,9.80
2018-06-10T19:39:41.680Z,10.23
2018-06-10T19:42:10.116Z,9.93
2018-06-10T19:44:38.449Z,10.32
2018-06-10T19:47:07.090Z,12.82
2018-06-10T19:49:35.692Z,12.43
2018-06-10T19:52:04.245Z,10.75
2018-06-10T19:54:32.580Z,10.82
2018-06-10T19:57:01.002Z,10.35
2018-06-10T19:59:29.406Z,13.72
2018-06-10T20:01:57.795Z,15.30
2018-06-10T20:04:26.150Z,14.07
2018-06-10T20:06:54.527Z,13.72
2018-06-10T20:09:22.891Z,12.73
2018-06-10T20:11:51.266Z,11.50
2018-06-10T20:14:20.202Z,11.53
2018-06-10T20:16:48.558Z,10.05
2018-06-10T20:19:16.926Z,9.90
2018-06-10T20:21:46.095Z,11.33
2018-06-10T20:24:14.417Z,10.65
2018-06-10T20:26:42.773Z,13.90
2018-06-10T20:29:11.693Z,12.68
2018-06-10T20:31:40.104Z,11.83
2018-06-10T20:34:08.464Z,11.33
2018-06-10T20:36:36.933Z,10.05
2018-06-10T20:39:07.642Z,10.72
2018-06-10T20:41:37.043Z,15.23
2018-06-10T20:44:05.530Z,14.70
2018-06-10T20:46:33.963Z,16.52
2018-06-10T20:49:03.394Z,15.23
2018-06-10T20:51:31.783Z,16.15
2018-06-10T20:54:00.132Z,12.25
2018-06-10T20:56:28.543Z,10.93
2018-06-10T20:58:56.927Z,11.73
2018-06-10T21:01:26.763Z,11.63
2018-06-10T21:03:55.097Z,10.98
2018-06-10T21:06:23.493Z,10.70
2018-06-10T21:08:51.887Z,13.25
2018-06-10T21:11:20.249Z,18.85
2018-06-10T21:13:48.635Z,18.35
2018-06-10T21:16:17.043Z,15.58
2018-06-10T21:18:46.767Z,17.12
2018-06-10T21:21:15.262Z,17.35
2018-06-10T21:23:43.616Z,20.77
2018-06-10T21:26:12.004Z,18.50
2018-06-10T21:28:40.399Z,19.02
2018-06-10T21:31:08.758Z,16.82
2018-06-10T21:33:37.192Z,16.23
2018-06-10T21:36:05.532Z,16.25
2018-06-10T21:38:33.889Z,13.28
2018-06-10T21:41:03.227Z,13.45
2018-06-10T21:43:31.744Z,11.03
2018-06-10T21:46:00.148Z,9.98
2018-06-10T21:48:28.717Z,9.45
2018-06-10T21:50:57.158Z,9.38
2018-06-10T21:53:25.558Z,10.88
2018-06-10T21:55:53.909Z,10.53
2018-06-10T21:58:22.596Z,11.88
2018-06-10T22:00:51.040Z,13.58
2018-06-10T22:03:19.547Z,13.38
2018-06-10T22:05:48.927Z,13.85
2018-06-10T22:08:17.616Z,12.43
2018-06-10T22:10:46.078Z,10.30
2018-06-10T22:13:14.961Z,9.43
2018-06-10T22:15:43.294Z,8.23
2018-06-10T22:18:12.303Z,7.60
2018-06-10T22:20:40.655Z,7.08
2018-06-10T22:23:09.034Z,8.73
2018-06-10T22:25:38.268Z,12.28
2018-06-10T22:28:06.702Z,12.30
2018-06-10T22:30:35.713Z,11.15
2018-06-10T22:33:04.080Z,12.68
2018-06-10T22:35:32.894Z,11.30
2018-06-10T22:38:02.141Z,11.45
2018-06-10T22:40:30.599Z,11.70
2018-06-10T22:42:59.507Z,13.22
2018-06-10T22:45:27.862Z,14.75
2018-06-10T22:47:56.588Z,17.35
2018-06-10T22:50:24.908Z,16.05
2018-06-10T22:53:07.492Z,17.27
2018-06-10T22:55:36.008Z,17.10
2018-06-10T22:58:04.371Z,15.30
2018-06-10T23:00:32.754Z,13.32
2018-06-10T23:03:01.442Z,12.30
2018-06-10T23:05:29.922Z,11.88
2018-06-10T23:07:58.605Z,13.20
2018-06-10T23:10:26.947Z,12.10
2018-06-10T23:12:56.279Z,11.53
2018-06-10T23:15:24.732Z,11.00
2018-06-10T23:17:53.234Z,10.03
2018-06-10T23:20:21.786Z,10.80
2018-06-10T23:22:50.111Z,9.75
2018-06-10T23:25:20.125Z,9.28
2018-06-10T23:27:48.721Z,9.43
2018-06-10T23:30:17.141Z,12.58
2018-06-10T23:32:45.475Z,11.78
2018-06-10T23:35:13.806Z,13.18
2018-06-10T23:37:42.145Z,13.15
2018-06-10T23:40:10.694Z,11.40
2018-06-10T23:42:39.164Z,11.28
2018-06-10T23:45:07.621Z,11.33
2018-06-10T23:47:35.990Z,14.93
2018-06-10T23:50:04.349Z,12.90
2018-06-10T23:52:32.826Z,12.35
2018-06-10T23:55:01.210Z,11.78
2018-06-10T23:57:29.569Z,12.20
2018-06-10T23:59:58.012Z,12.40
